Vigo, Spain
Current Conditions -  °F | °C
As of 10:30 PM on Friday 24 Oct 2014 (Local Time) from LEVX Reporting Station
Clear Clear  
Wind Chill: 68°   Ceiling: Unl
Heat Index: 68°   Visibility: 6mi
Dew Point: 61°   Wind: 5mph
Humidity: 78%   Direction: 10°N
Pressure: 30.09"   Gusts: NA
Location:  42.23°N, 8.71°W
Report Text: LEVX 242030Z 01004KT 9000 NSC 20/16 Q1019 NOSIG
Loading
Personal Weather Stations






























Interactive Weather Map
Tropical Storm Tracking
New forecast layout! Learn more

10-Day Weather Forecast

Advertisements
Track Severe Weather on mobile